createdAt,value
2023-09-21T00:00:17.531Z,8.90
2023-09-21T00:05:23.912Z,9.80
2023-09-21T00:10:33.303Z,7.90
2023-09-21T00:15:35.773Z,8.80
2023-09-21T00:20:44.500Z,8.30
2023-09-21T00:25:46.463Z,9.60
2023-09-21T00:30:50.524Z,8.60
2023-09-21T00:35:52.578Z,7.80
2023-09-21T00:40:59.647Z,8.60
2023-09-21T00:46:04.743Z,8.60
2023-09-21T00:51:10.205Z,8.50
2023-09-21T00:56:13.950Z,8.50
2023-09-21T01:01:24.704Z,6.50
2023-09-21T01:06:27.067Z,7.00
2023-09-21T01:11:31.247Z,8.00
2023-09-21T01:16:33.233Z,6.70
2023-09-21T01:21:41.908Z,7.60
2023-09-21T01:26:44.453Z,8.30
2023-09-21T01:31:47.104Z,6.90
2023-09-21T01:36:49.204Z,6.80
2023-09-21T01:41:54.984Z,7.50
2023-09-21T01:46:58.052Z,8.70
2023-09-21T01:52:00.604Z,7.70
2023-09-21T01:57:07.290Z,7.90
2023-09-21T02:02:09.310Z,7.30
2023-09-21T02:07:13.121Z,6.60
2023-09-21T02:12:16.155Z,7.80
2023-09-21T02:17:18.493Z,7.30
2023-09-21T02:22:21.240Z,6.90
2023-09-21T02:27:24.126Z,6.90
2023-09-21T02:32:26.142Z,6.90
2023-09-21T02:37:29.457Z,8.60
2023-09-21T02:42:31.433Z,6.60
2023-09-21T02:47:33.547Z,7.40
2023-09-21T02:52:37.261Z,7.60
2023-09-21T02:57:39.618Z,7.60
2023-09-21T03:02:41.982Z,7.80
2023-09-21T03:07:45.739Z,9.10
2023-09-21T03:12:52.529Z,7.20
2023-09-21T03:17:57.132Z,7.20
2023-09-21T03:23:05.759Z,7.30
2023-09-21T03:28:14.068Z,6.70
2023-09-21T03:33:18.245Z,8.10
2023-09-21T03:38:21.093Z,7.50
2023-09-21T03:43:25.067Z,8.30
2023-09-21T03:48:27.198Z,7.50
2023-09-21T03:53:29.966Z,8.20
2023-09-21T03:58:31.946Z,7.50
2023-09-21T04:03:34.481Z,7.70
2023-09-21T04:08:38.612Z,7.40
2023-09-21T04:13:40.450Z,7.60
2023-09-21T04:18:42.627Z,7.60
2023-09-21T04:23:45.209Z,7.70
2023-09-21T04:28:48.073Z,8.20
2023-09-21T04:33:50.682Z,8.20
2023-09-21T04:38:53.099Z,8.70
2023-09-21T04:43:55.833Z,8.60
2023-09-21T04:48:58.702Z,8.10
2023-09-21T04:54:00.961Z,8.40
2023-09-21T04:59:03.189Z,7.90
2023-09-21T05:04:05.833Z,8.10
2023-09-21T05:09:08.868Z,9.20
2023-09-21T05:14:10.977Z,8.30
2023-09-21T05:19:14.299Z,8.30
2023-09-21T05:24:16.269Z,7.40
2023-09-21T05:29:18.334Z,7.00
2023-09-21T05:34:21.204Z,5.50
2023-09-21T05:39:24.683Z,5.90
2023-09-21T05:44:27.076Z,6.20
2023-09-21T05:49:29.272Z,4.80
2023-09-21T05:54:31.392Z,5.80
2023-09-21T05:59:33.471Z,5.30
2023-09-21T06:04:36.005Z,5.00
2023-09-21T06:09:37.977Z,6.90
2023-09-21T06:14:39.931Z,5.80
2023-09-21T06:19:42.836Z,4.90
2023-09-21T06:24:46.133Z,5.80
2023-09-21T06:29:48.030Z,6.00
2023-09-21T06:34:50.049Z,9.20
2023-09-21T06:39:52.018Z,5.60
2023-09-21T06:44:56.094Z,4.90
2023-09-21T06:49:58.165Z,5.20
2023-09-21T06:55:01.776Z,4.40
2023-09-21T07:00:10.741Z,3.90
2023-09-21T07:05:13.826Z,3.60
2023-09-21T07:10:17.720Z,3.40
2023-09-21T07:15:20.697Z,5.10
2023-09-21T07:20:24.944Z,3.60
2023-09-21T07:25:29.211Z,2.80
2023-09-21T07:30:33.941Z,3.10
2023-09-21T07:35:37.663Z,3.10
2023-09-21T07:40:39.638Z,2.90
2023-09-21T07:45:41.636Z,2.90
2023-09-21T07:50:43.512Z,2.60
2023-09-21T07:55:45.375Z,2.70
2023-09-21T08:00:47.156Z,3.50
2023-09-21T08:05:50.436Z,2.60
2023-09-21T08:10:54.063Z,2.40
2023-09-21T08:15:56.092Z,2.90
2023-09-21T08:20:58.018Z,2.70
2023-09-21T08:26:00.491Z,2.40
2023-09-21T08:31:02.749Z,2.70
2023-09-21T08:36:06.464Z,2.90
2023-09-21T08:41:09.613Z,2.40
2023-09-21T08:46:13.252Z,2.40
2023-09-21T08:51:20.079Z,2.90
2023-09-21T08:56:23.109Z,3.20
2023-09-21T09:01:25.390Z,3.10
2023-09-21T09:06:30.774Z,3.00
2023-09-21T09:11:33.849Z,2.70
2023-09-21T09:16:36.060Z,2.90
2023-09-21T09:21:38.517Z,3.00
2023-09-21T09:26:40.949Z,3.50
2023-09-21T09:31:44.113Z,3.10
2023-09-21T09:36:51.062Z,3.70
2023-09-21T09:41:55.087Z,3.00
2023-09-21T09:46:59.321Z,2.60
2023-09-21T09:52:03.089Z,2.20
2023-09-21T09:57:12.347Z,2.80
2023-09-21T10:02:18.856Z,2.40
2023-09-21T10:07:21.074Z,2.40
2023-09-21T10:12:27.131Z,4.30
2023-09-21T10:17:29.502Z,3.30
2023-09-21T10:22:31.668Z,2.60
2023-09-21T10:27:34.949Z,2.60
2023-09-21T10:32:43.154Z,2.10
2023-09-21T10:37:45.186Z,3.50
2023-09-21T10:42:49.532Z,2.60
2023-09-21T10:47:53.615Z,3.50
2023-09-21T10:52:57.062Z,3.20
2023-09-21T10:58:01.973Z,4.30
2023-09-21T11:03:05.143Z,2.80
2023-09-21T11:08:08.347Z,2.50
2023-09-21T11:13:10.806Z,2.90
2023-09-21T11:18:12.917Z,3.70
2023-09-21T11:23:16.382Z,3.50
2023-09-21T11:28:22.126Z,3.00
2023-09-21T11:33:24.371Z,3.10
2023-09-21T11:38:26.768Z,3.70
2023-09-21T11:43:30.502Z,3.80
2023-09-21T11:48:34.788Z,2.50
2023-09-21T11:53:37.051Z,2.80
2023-09-21T11:58:39.199Z,2.70
2023-09-21T12:03:42.428Z,3.10
2023-09-21T12:08:44.855Z,3.30
2023-09-21T12:13:46.826Z,3.40
2023-09-21T12:18:49.600Z,3.90
2023-09-21T12:23:52.768Z,4.50
2023-09-21T12:28:54.671Z,3.00
2023-09-21T12:33:57.148Z,3.20
2023-09-21T12:39:01.662Z,3.00
2023-09-21T12:44:04.152Z,3.70
2023-09-21T12:49:05.995Z,3.50
2023-09-21T12:54:08.789Z,3.40
2023-09-21T12:59:10.754Z,3.20
2023-09-21T13:04:12.649Z,4.50
2023-09-21T13:09:14.683Z,4.50
2023-09-21T13:14:16.597Z,3.80
2023-09-21T13:19:18.580Z,3.80
2023-09-21T13:24:20.657Z,3.90
2023-09-21T13:29:22.631Z,3.90
2023-09-21T13:34:25.933Z,3.70
2023-09-21T13:39:28.156Z,4.10
2023-09-21T13:44:30.982Z,4.10
2023-09-21T13:49:34.807Z,3.50
2023-09-21T13:54:36.717Z,3.30
2023-09-21T13:59:40.674Z,4.00
2023-09-21T14:04:43.032Z,4.50
2023-09-21T14:09:45.087Z,4.20
2023-09-21T14:14:48.469Z,3.60
2023-09-21T14:19:50.317Z,3.80
2023-09-21T14:24:52.777Z,3.70
2023-09-21T14:29:54.824Z,3.70
2023-09-21T14:34:56.828Z,4.00
2023-09-21T14:40:01.191Z,4.10
2023-09-21T14:45:04.901Z,4.30
2023-09-21T14:50:10.555Z,3.20
2023-09-21T14:55:12.655Z,3.90
2023-09-21T15:00:16.429Z,3.20
2023-09-21T15:05:18.684Z,4.60
2023-09-21T15:10:20.744Z,3.90
2023-09-21T15:15:22.640Z,3.70
2023-09-21T15:20:24.817Z,3.50
2023-09-21T15:25:26.816Z,3.50
2023-09-21T15:30:29.112Z,3.90
2023-09-21T15:35:31.014Z,3.40
2023-09-21T15:40:32.823Z,3.20
2023-09-21T15:45:34.776Z,4.00
2023-09-21T15:50:39.287Z,3.20
2023-09-21T15:55:41.846Z,3.40
2023-09-21T16:00:44.599Z,3.10
2023-09-21T16:05:46.704Z,2.90
2023-09-21T16:10:48.535Z,2.90
2023-09-21T16:15:50.348Z,2.40
2023-09-21T16:20:52.458Z,3.00
2023-09-21T16:25:54.320Z,3.80
2023-09-21T16:30:57.938Z,3.10
2023-09-21T16:36:02.859Z,3.30
2023-09-21T16:41:05.094Z,3.30
2023-09-21T16:46:12.351Z,2.80
2023-09-21T16:51:17.712Z,8.40
2023-09-21T16:56:20.030Z,3.50
2023-09-21T17:01:22.161Z,4.40
2023-09-21T17:06:24.549Z,4.10
2023-09-21T17:11:27.040Z,3.60
2023-09-21T17:16:29.100Z,3.70
2023-09-21T17:21:32.046Z,4.10
2023-09-21T17:26:34.155Z,4.00
2023-09-21T17:31:36.446Z,4.70
2023-09-21T17:36:38.743Z,5.60
2023-09-21T17:41:40.648Z,4.20
2023-09-21T17:46:42.668Z,5.70
2023-09-21T17:51:44.613Z,5.80
2023-09-21T17:56:46.863Z,6.80
2023-09-21T18:01:49.319Z,5.90
2023-09-21T18:06:51.915Z,6.60
2023-09-21T18:11:53.789Z,6.90
2023-09-21T18:16:57.154Z,7.00
2023-09-21T18:21:59.737Z,7.00
2023-09-21T18:27:01.637Z,6.70
2023-09-21T18:32:03.473Z,6.40
2023-09-21T18:37:05.923Z,6.70
2023-09-21T18:42:10.373Z,7.60
2023-09-21T18:47:12.549Z,8.80
2023-09-21T18:52:14.554Z,6.90
2023-09-21T18:57:19.025Z,6.40
2023-09-21T19:02:21.046Z,6.40
2023-09-21T19:07:22.892Z,6.40
2023-09-21T19:12:25.773Z,7.20
2023-09-21T19:17:31.538Z,5.70
2023-09-21T19:22:38.554Z,6.90
2023-09-21T19:27:40.661Z,7.10
2023-09-21T19:32:43.118Z,7.80
2023-09-21T19:37:49.206Z,7.20
2023-09-21T19:42:51.718Z,8.00
2023-09-21T19:47:54.017Z,10.10
2023-09-21T19:52:55.966Z,7.50
2023-09-21T19:57:58.066Z,6.50
2023-09-21T20:03:00.352Z,7.00
2023-09-21T20:08:03.201Z,7.00
2023-09-21T20:13:07.504Z,6.80
2023-09-21T20:18:09.497Z,7.40
2023-09-21T20:23:11.844Z,7.70
2023-09-21T20:28:13.750Z,7.60
2023-09-21T20:33:16.014Z,6.70
2023-09-21T20:43:38.662Z,7.80
2023-09-21T20:48:40.666Z,8.60
2023-09-21T20:53:42.825Z,8.40
2023-09-21T20:58:44.817Z,6.80
2023-09-21T21:03:48.715Z,7.60
2023-09-21T21:08:54.225Z,6.90
2023-09-21T21:13:56.676Z,6.30
2023-09-21T21:18:58.503Z,7.20
2023-09-21T21:24:01.379Z,6.80
2023-09-21T21:29:04.996Z,6.90
2023-09-21T21:34:06.832Z,7.10
2023-09-21T21:39:09.449Z,6.90
2023-09-21T21:44:11.525Z,7.20
2023-09-21T21:49:13.819Z,6.60
2023-09-21T21:54:15.938Z,6.50
2023-09-21T21:59:18.008Z,6.80
2023-09-21T22:04:19.875Z,7.50
2023-09-21T22:09:23.310Z,7.00
2023-09-21T22:14:26.029Z,6.90
2023-09-21T22:19:28.522Z,7.00
2023-09-21T22:24:30.742Z,6.00
2023-09-21T22:29:33.265Z,6.50
2023-09-21T22:34:35.398Z,6.10
2023-09-21T22:39:37.456Z,7.00
2023-09-21T22:44:40.208Z,5.30
2023-09-21T22:49:43.342Z,5.20
2023-09-21T22:54:46.191Z,6.50
2023-09-21T22:59:50.981Z,6.60
2023-09-21T23:04:52.914Z,6.70
2023-09-21T23:09:57.762Z,5.30
2023-09-21T23:14:59.844Z,5.80
2023-09-21T23:20:05.219Z,6.60
2023-09-21T23:25:07.530Z,7.00
2023-09-21T23:30:12.321Z,6.20
2023-09-21T23:35:14.251Z,5.70
2023-09-21T23:40:16.207Z,7.00
2023-09-21T23:45:19.866Z,6.20
2023-09-21T23:50:23.607Z,5.90
2023-09-21T23:55:25.659Z,6.00
